Time;durP1;ratioP1;P1;durP2;ratioP2;P2;SDS_P1;SDS_P2;PMS_P1;PMS_P2;Temp;Humidity;BMP_temperature;BMP_pressure;BME280_temperature;BME280_humidity;BME280_pressure;Samples;Min_cycle;Max_cycle;Signal;HPM_P1;HPM_P2
2022/11/09 00:00:02;;;;;;;;;;;;;;;17.22;49.14;101540.22;5058129;28;1230;-61
2022/11/09 00:02:29;;;;;;;;;;;;;;;16.81;48.64;101546.06;5057651;28;1395;-60
2022/11/09 00:04:55;;;;;;;;;;;;;;;16.80;47.35;101544.41;5057560;28;1123;-62
2022/11/09 00:07:20;;;;;;;;;;;;;;;16.52;46.66;101548.19;5057662;28;1983;-61
2022/11/09 00:09:46;;;;;;;;;;;;;;;17.39;47.69;101542.88;5057878;28;1156;-61
2022/11/09 00:12:11;;;;;;;;;;;;;;;16.78;48.10;101552.09;5058042;28;1198;-61
2022/11/09 00:14:37;;;;;;;;;;;;;;;17.31;48.32;101543.34;5057907;28;1112;-62
2022/11/09 00:17:03;;;;;;;;;;;;;;;17.69;48.78;101539.56;5057615;28;1155;-59
2022/11/09 00:19:28;;;;;;;;;;;;;;;16.92;48.78;101544.31;5057745;28;1206;-61
2022/11/09 00:21:53;;;;;;;;;;;;;;;16.67;47.97;101545.63;5057951;28;1175;-61
2022/11/09 00:24:19;;;;;;;;;;;;;;;16.68;46.82;101547.28;5057857;28;1233;-61
2022/11/09 00:26:44;;;;;;;;;;;;;;;16.54;46.42;101537.78;5057248;28;1898;-61
2022/11/09 00:29:10;;;;;;;;;;;;;;;17.58;47.77;101533.13;5039239;28;1112;-61
2022/11/09 00:31:35;;;;;;;;;;;;;;;16.87;48.57;101535.97;5057373;28;1220;-62
2022/11/09 00:34:01;;;;;;;;;;;;;;;16.55;48.02;101534.78;5057712;28;1242;-61
2022/11/09 00:36:27;;;;;;;;;;;;;;;16.68;47.24;101536.31;5057812;28;1206;-61
2022/11/09 00:38:53;;;;;;;;;;;;;;;16.90;48.22;101536.34;5039182;28;1497;-61
2022/11/09 00:41:18;;;;;;;;;;;;;;;16.67;47.75;101536.56;5057190;28;1269;-62
2022/11/09 00:43:44;;;;;;;;;;;;;;;17.42;47.71;101528.63;5039441;28;1171;-61
2022/11/09 00:46:10;;;;;;;;;;;;;;;16.71;48.42;101533.03;5039264;28;1902;-61
2022/11/09 00:48:36;;;;;;;;;;;;;;;16.51;47.44;101530.88;5057147;28;1139;-61
2022/11/09 00:51:01;;;;;;;;;;;;;;;16.41;46.85;101525.22;5039205;28;1403;-60
2022/11/09 00:53:27;;;;;;;;;;;;;;;16.33;46.20;101528.44;5056672;28;1112;-60
2022/11/09 00:55:59;;;;;;;;;;;;;;;16.21;46.20;101531.28;5056830;28;1167;-60
2022/11/09 00:58:25;;;;;;;;;;;;;;;16.75;47.30;101536.94;5039018;28;1342;-61
2022/11/09 01:00:51;;;;;;;;;;;;;;;16.43;47.11;101529.38;5056475;28;1262;-62
2022/11/09 01:03:16;;;;;;;;;;;;;;;17.53;47.44;101535.88;5056921;28;1522;-61
2022/11/09 01:05:42;;;;;;;;;;;;;;;16.73;48.49;101538.28;5056741;28;1136;-61
2022/11/09 01:08:08;;;;;;;;;;;;;;;16.47;47.62;101534.41;5038378;28;1998;-60
2022/11/09 01:10:34;;;;;;;;;;;;;;;17.49;47.86;101529.22;5057043;28;1151;-60
2022/11/09 01:12:59;;;;;;;;;;;;;;;17.02;48.29;101527.94;5056757;28;1091;-60
2022/11/09 01:15:24;;;;;;;;;;;;;;;16.68;47.89;101522.56;5056557;28;1144;-60
2022/11/09 01:17:50;;;;;;;;;;;;;;;17.21;48.08;101528.41;5056972;28;1116;-60
2022/11/09 01:20:16;;;;;;;;;;;;;;;17.10;48.58;101532.97;5038403;28;1124;-60
2022/11/09 01:22:41;;;;;;;;;;;;;;;16.72;48.14;101531.97;5056158;28;1163;-60
2022/11/09 01:25:07;;;;;;;;;;;;;;;16.48;47.24;101530.53;5056612;28;1128;-60
2022/11/09 01:27:32;;;;;;;;;;;;;;;17.48;48.03;101533.06;5038518;28;1911;-61
2022/11/09 01:29:58;;;;;;;;;;;;;;;16.85;48.23;101532.66;5055802;28;1144;-60
2022/11/09 01:32:23;;;;;;;;;;;;;;;16.58;47.41;101530.69;5038400;28;2057;-60
2022/11/09 01:34:48;;;;;;;;;;;;;;;17.69;47.91;101530.50;5056283;28;1163;-60
2022/11/09 01:37:14;;;;;;;;;;;;;;;16.82;48.85;101533.19;5055931;28;1202;-60
2022/11/09 01:39:39;;;;;;;;;;;;;;;16.60;47.82;101539.50;5055448;28;1151;-60
2022/11/09 01:42:05;;;;;;;;;;;;;;;16.48;47.03;101533.28;5038242;28;1108;-60
2022/11/09 01:44:30;;;;;;;;;;;;;;;17.19;48.01;101535.25;5056257;28;1222;-60
2022/11/09 01:46:57;;;;;;;;;;;;;;;16.73;48.02;101539.13;5021718;28;2060;-60
2022/11/09 01:49:25;;;;;;;;;;;;;;;17.20;47.96;101531.44;5056181;28;1136;-60
2022/11/09 01:52:03;;;;;;;;;;;;;;;17.02;48.45;101536.16;5056343;28;1191;-60
2022/11/09 01:54:30;;;;;;;;;;;;;;;16.69;48.18;101535.22;5029499;28;1222;-60
2022/11/09 01:56:57;;;;;;;;;;;;;;;17.52;47.92;101528.69;5056150;28;1100;-60
2022/11/09 01:59:25;;;;;;;;;;;;;;;16.83;48.25;101537.56;5037762;28;1144;-61
2022/11/09 02:01:51;;;;;;;;;;;;;;;16.64;47.48;101531.59;5055666;28;1084;-61
2022/11/09 02:04:17;;;;;;;;;;;;;;;16.49;46.88;101532.22;5038207;28;1144;-61
2022/11/09 02:06:43;;;;;;;;;;;;;;;17.24;48.23;101527.88;5037867;28;1914;-61
2022/11/09 02:09:11;;;;;;;;;;;;;;;16.76;47.90;101527.63;5038087;28;1180;-60
2022/11/09 02:11:36;;;;;;;;;;;;;;;18.28;47.84;101540.56;5037972;28;1455;-60
2022/11/09 02:14:02;;;;;;;;;;;;;;;17.51;48.88;101523.47;5037655;28;1881;-60
2022/11/09 02:16:27;;;;;;;;;;;;;;;17.10;48.54;101524.72;5055947;28;1164;-60
2022/11/09 02:18:55;;;;;;;;;;;;;;;16.84;48.02;101531.81;5021691;28;1158;-61
2022/11/09 02:21:23;;;;;;;;;;;;;;;17.56;48.39;101526.28;5037457;28;1146;-62
2022/11/09 02:23:49;;;;;;;;;;;;;;;16.87;48.69;101516.75;5037858;28;1136;-61
2022/11/09 02:26:17;;;;;;;;;;;;;;;16.80;47.56;101532.59;5021654;28;1906;-61
2022/11/09 02:28:43;;;;;;;;;;;;;;;17.49;48.19;101534.72;5021679;28;1235;-60
2022/11/09 02:31:09;;;;;;;;;;;;;;;16.91;48.43;101528.91;5037276;28;964;-60
2022/11/09 02:33:51;;;;;;;;;;;;;;;18.05;48.17;101528.88;5021541;28;1148;-61
2022/11/09 02:36:17;;;;;;;;;;;;;;;17.53;49.14;101529.50;5055449;28;1213;-62
2022/11/09 02:38:42;;;;;;;;;;;;;;;17.07;48.53;101530.75;5055740;28;1231;-61
2022/11/09 02:41:08;;;;;;;;;;;;;;;16.88;47.72;101537.63;5055447;28;1167;-61
2022/11/09 02:43:34;;;;;;;;;;;;;;;16.73;47.04;101530.88;5037149;28;997;-62
2022/11/09 02:45:59;;;;;;;;;;;;;;;16.59;46.61;101537.81;5037925;28;1906;-62
2022/11/09 02:48:24;;;;;;;;;;;;;;;16.47;46.25;101534.41;5037859;28;1223;-62
2022/11/09 02:50:50;;;;;;;;;;;;;;;17.45;47.56;101536.34;5038638;28;1517;-61
2022/11/09 02:53:15;;;;;;;;;;;;;;;16.78;48.17;101530.09;5059452;28;1140;-61
2022/11/09 02:55:43;;;;;;;;;;;;;;;16.68;46.96;101533.56;5041228;28;1256;-62
2022/11/09 02:58:10;;;;;;;;;;;;;;;16.44;46.77;101527.50;5041646;28;1231;-61
2022/11/09 03:00:36;;;;;;;;;;;;;;;17.46;47.54;101524.25;5059134;28;1222;-61
2022/11/09 03:03:02;;;;;;;;;;;;;;;16.82;47.92;101533.19;5058927;28;1198;-61
2022/11/09 03:05:27;;;;;;;;;;;;;;;16.62;47.10;101526.34;5041430;28;1199;-62
2022/11/09 03:07:53;;;;;;;;;;;;;;;16.46;46.91;101527.25;5040740;28;1914;-61
2022/11/09 03:10:20;;;;;;;;;;;;;;;17.54;47.14;101520.19;5041119;28;1283;-61
2022/11/09 03:12:45;;;;;;;;;;;;;;;16.87;47.89;101531.31;5041032;28;1299;-61
2022/11/09 03:15:13;;;;;;;;;;;;;;;16.60;47.53;101528.50;5040977;28;1292;-61
2022/11/09 03:17:43;;;;;;;;;;;;;;;17.27;47.47;101526.53;5041018;28;1399;-61
2022/11/09 03:20:08;;;;;;;;;;;;;;;16.90;48.38;101536.34;5058361;28;997;-62
2022/11/09 03:22:35;;;;;;;;;;;;;;;16.71;47.45;101533.03;5040513;28;1243;-61
2022/11/09 03:25:00;;;;;;;;;;;;;;;17.69;48.14;101528.56;5058888;28;1222;-61
2022/11/09 03:27:26;;;;;;;;;;;;;;;16.97;48.48;101522.41;5040884;28;1898;-61
2022/11/09 03:29:51;;;;;;;;;;;;;;;16.67;47.86;101526.41;5058721;28;1211;-61
2022/11/09 03:32:18;;;;;;;;;;;;;;;16.55;47.15;101531.19;5040774;28;1277;-61
2022/11/09 03:34:44;;;;;;;;;;;;;;;16.45;46.25;101525.56;5040762;28;1159;-61
2022/11/09 03:37:11;;;;;;;;;;;;;;;17.37;47.78;101526.63;5040642;28;1337;-61
2022/11/09 03:39:37;;;;;;;;;;;;;;;16.75;48.12;101525.94;5040520;28;1280;-61
2022/11/09 03:42:02;;;;;;;;;;;;;;;16.82;47.73;101520.28;5058393;28;1230;-61
2022/11/09 03:44:28;;;;;;;;;;;;;;;17.27;48.28;101530.13;5040270;28;1168;-61
2022/11/09 03:46:53;;;;;;;;;;;;;;;16.73;48.21;101525.41;5058503;28;1982;-61
2022/11/09 03:49:18;;;;;;;;;;;;;;;16.57;47.45;101527.09;5058360;28;1187;-60
2022/11/09 03:51:44;;;;;;;;;;;;;;;17.50;47.77;101514.41;5058384;28;1148;-61
2022/11/09 03:54:09;;;;;;;;;;;;;;;16.89;48.26;101515.44;5057855;28;1131;-61
2022/11/09 03:56:35;;;;;;;;;;;;;;;16.65;47.42;101525.00;5058350;28;1143;-61
2022/11/09 03:59:00;;;;;;;;;;;;;;;16.47;47.06;101523.41;5057775;28;1179;-61
2022/11/09 04:01:26;;;;;;;;;;;;;;;17.39;47.67;101524.47;5057610;28;1215;-61
2022/11/09 04:03:51;;;;;;;;;;;;;;;16.73;48.00;101527.28;5058246;28;1151;-61
2022/11/09 04:06:16;;;;;;;;;;;;;;;17.65;47.83;101527.44;5057615;28;1956;-61
2022/11/09 04:08:42;;;;;;;;;;;;;;;17.39;48.69;101521.72;5057831;28;1152;-62
2022/11/09 04:11:07;;;;;;;;;;;;;;;16.84;48.42;101523.56;5058012;28;1187;-60
2022/11/09 04:13:33;;;;;;;;;;;;;;;16.68;47.70;101530.81;5057667;28;1207;-60
2022/11/09 04:15:58;;;;;;;;;;;;;;;16.56;46.92;101538.34;5057482;28;1210;-61
2022/11/09 04:18:23;;;;;;;;;;;;;;;16.43;46.64;101534.88;5057608;28;1124;-60
2022/11/09 04:20:49;;;;;;;;;;;;;;;16.34;46.16;101521.84;5057451;28;1135;-58
2022/11/09 04:23:14;;;;;;;;;;;;;;;17.20;47.43;101534.16;5057683;28;1219;-59
2022/11/09 04:25:40;;;;;;;;;;;;;;;16.55;47.89;101532.03;5057673;28;1076;-59
2022/11/09 04:28:06;;;;;;;;;;;;;;;17.41;47.81;101530.53;5057409;28;1994;-60
2022/11/09 04:30:33;;;;;;;;;;;;;;;17.08;48.68;101529.66;5057398;28;1207;-60
2022/11/09 04:32:58;;;;;;;;;;;;;;;16.68;48.03;101536.31;5057696;28;1163;-59
2022/11/09 04:35:24;;;;;;;;;;;;;;;16.54;47.30;101529.53;5056953;28;1132;-59
2022/11/09 04:37:54;;;;;;;;;;;;;;;16.35;46.72;101532.56;5057243;28;1508;-59
2022/11/09 04:40:19;;;;;;;;;;;;;;;17.37;47.63;101534.06;5057574;28;1156;-60
2022/11/09 04:42:45;;;;;;;;;;;;;;;16.91;48.39;101542.66;5056988;28;1186;-60
2022/11/09 04:45:10;;;;;;;;;;;;;;;16.57;47.87;101546.31;5057069;28;1172;-59
2022/11/09 04:47:35;;;;;;;;;;;;;;;17.38;47.93;101544.78;5057229;28;1956;-58
2022/11/09 04:50:01;;;;;;;;;;;;;;;16.69;48.37;101548.97;5056907;28;1147;-60
2022/11/09 04:52:26;;;;;;;;;;;;;;;16.56;47.46;101552.94;5057416;28;1179;-58
2022/11/09 04:54:52;;;;;;;;;;;;;;;16.45;47.46;101553.03;5057027;28;1119;-57
2022/11/09 04:57:17;;;;;;;;;;;;;;;17.09;48.46;101549.72;5034747;28;1754;-57
2022/11/09 04:59:42;;;;;;;;;;;;;;;16.62;48.39;101558.47;5056849;28;1509;-56
2022/11/09 05:02:08;;;;;;;;;;;;;;;16.70;48.42;101560.75;5054531;28;1241;-56
2022/11/09 05:04:33;;;;;;;;;;;;;;;16.92;48.44;101561.63;5052411;28;2430;-55
2022/11/09 05:06:59;;;;;;;;;;;;;;;18.16;48.31;101556.44;5055713;28;1913;-55
2022/11/09 05:09:25;;;;;;;;;;;;;;;18.80;47.96;101564.50;5054593;28;2063;-55
2022/11/09 05:11:51;;;;;;;;;;;;;;;17.46;49.74;101557.25;5052453;28;2246;-54
2022/11/09 05:14:16;;;;;;;;;;;;;;;17.05;49.06;101565.88;5055830;28;2011;-56
2022/11/09 05:16:42;;;;;;;;;;;;;;;16.98;48.14;101569.94;5056671;28;2060;-52
2022/11/09 05:19:07;;;;;;;;;;;;;;;16.79;47.46;101577.63;5056399;28;1955;-53
2022/11/09 05:21:33;;;;;;;;;;;;;;;17.35;49.11;101572.81;5057011;28;1120;-56
2022/11/09 05:23:58;;;;;;;;;;;;;;;16.84;48.92;101577.69;5056545;28;1187;-56
2022/11/09 05:26:27;;;;;;;;;;;;;;;16.73;47.75;101577.56;5056055;28;1906;-60
2022/11/09 05:28:53;;;;;;;;;;;;;;;16.65;47.08;101580.75;5056759;28;1148;-56
2022/11/09 05:31:18;;;;;;;;;;;;;;;17.46;48.31;101582.00;5056159;28;1273;-62
2022/11/09 05:33:43;;;;;;;;;;;;;;;16.88;48.44;101589.84;5056390;28;1166;-60
2022/11/09 05:36:09;;;;;;;;;;;;;;;17.23;48.68;101594.13;5056531;28;1190;-61
2022/11/09 05:38:34;;;;;;;;;;;;;;;17.64;49.16;101589.03;5056120;28;1136;-59
2022/11/09 05:41:00;;;;;;;;;;;;;;;16.91;49.58;101597.59;5056213;28;1143;-60
2022/11/09 05:43:25;;;;;;;;;;;;;;;16.77;48.37;101599.84;5055883;28;1135;-62
2022/11/09 05:45:50;;;;;;;;;;;;;;;17.36;48.96;101601.97;5056439;28;1227;-57
2022/11/09 05:48:16;;;;;;;;;;;;;;;17.16;49.29;101607.22;5056047;28;1902;-59
2022/11/09 05:50:42;;;;;;;;;;;;;;;17.28;49.48;101606.00;5038195;28;2251;-59
2022/11/09 05:53:11;;;;;;;;;;;;;;;18.20;48.93;101612.63;5038293;28;1454;-61
2022/11/09 05:55:37;;;;;;;;;;;;;;;17.32;49.39;101614.56;5055225;28;1226;-59
2022/11/09 05:58:02;;;;;;;;;;;;;;;17.00;48.78;101614.44;5056345;28;1002;-59
2022/11/09 06:00:28;;;;;;;;;;;;;;;16.86;47.51;101619.50;5055826;28;1210;-56
2022/11/09 06:03:00;;;;;;;;;;;;;;;16.65;47.41;101630.19;5055763;28;1299;-59
2022/11/09 06:05:25;;;;;;;;;;;;;;;17.19;48.80;101629.53;5038546;28;1476;-60
2022/11/09 06:07:51;;;;;;;;;;;;;;;16.82;48.31;101634.81;5055503;28;1917;-61
2022/11/09 06:10:17;;;;;;;;;;;;;;;16.64;47.49;101627.69;5052805;28;1164;-63
2022/11/09 06:12:42;;;;;;;;;;;;;;;17.24;48.59;101626.84;5055499;28;1377;-62
2022/11/09 06:15:08;;;;;;;;;;;;;;;16.76;48.60;101640.22;5052496;28;1229;-61
2022/11/09 06:17:33;;;;;;;;;;;;;;;18.29;48.37;101627.56;5051557;28;1192;-62
2022/11/09 06:19:59;;;;;;;;;;;;;;;17.40;49.66;101636.09;5049767;28;2267;-61
2022/11/09 06:22:24;;;;;;;;;;;;;;;17.01;48.82;101635.34;5055754;28;1147;-59
2022/11/09 06:24:49;;;;;;;;;;;;;;;16.84;48.29;101638.13;5056781;28;1203;-60
2022/11/09 06:27:15;;;;;;;;;;;;;;;17.60;49.09;101637.41;5058971;28;3030;-62
2022/11/09 06:29:40;;;;;;;;;;;;;;;17.19;49.63;101647.94;5059945;28;1108;-61
2022/11/09 06:32:06;;;;;;;;;;;;;;;16.85;48.57;101640.63;5059898;28;1140;-62
2022/11/09 06:34:31;;;;;;;;;;;;;;;17.94;47.17;101634.44;5060055;28;1182;-61
2022/11/09 06:36:57;;;;;;;;;;;;;;;17.34;48.70;101645.38;5059976;28;1146;-63
2022/11/09 06:39:22;;;;;;;;;;;;;;;17.00;49.79;101651.00;5059705;28;1100;-62
2022/11/09 06:41:48;;;;;;;;;;;;;;;16.82;50.19;101656.78;5059920;28;1120;-61
2022/11/09 06:44:14;;;;;;;;;;;;;;;16.69;50.56;101641.47;5041319;28;1120;-59
2022/11/09 06:46:39;;;;;;;;;;;;;;;16.52;51.11;101647.00;5059327;28;1909;-59
2022/11/09 06:49:05;;;;;;;;;;;;;;;16.41;51.60;101654.25;5059643;28;2211;-61
2022/11/09 06:51:30;;;;;;;;;;;;;;;16.31;51.60;101657.66;5059328;28;1081;-57
2022/11/09 06:53:55;;;;;;;;;;;;;;;16.22;51.82;101654.53;5059119;28;1084;-58
2022/11/09 06:56:21;;;;;;;;;;;;;;;16.08;52.29;101659.50;5059235;28;886;-60
2022/11/09 06:58:46;;;;;;;;;;;;;;;16.07;52.33;101651.53;5059795;28;1178;-59
2022/11/09 07:01:12;;;;;;;;;;;;;;;15.97;52.55;101643.13;5059322;28;1206;-58
2022/11/09 07:03:38;;;;;;;;;;;;;;;15.86;53.09;101655.81;5039756;28;1155;-58
2022/11/09 07:06:09;;;;;;;;;;;;;;;15.78;53.00;101659.78;5055047;28;1910;-58
2022/11/09 07:08:34;;;;;;;;;;;;;;;16.57;51.47;101661.63;5058953;28;1151;-57
2022/11/09 07:11:06;;;;;;;;;;;;;;;16.92;50.60;101667.94;5059370;28;1210;-57
2022/11/09 07:13:32;;;;;;;;;;;;;;;16.27;52.40;101661.16;5059526;28;1224;-58
2022/11/09 07:15:57;;;;;;;;;;;;;;;16.05;52.79;101668.25;5059347;28;1140;-57
2022/11/09 07:18:22;;;;;;;;;;;;;;;15.93;53.03;101661.16;5059330;28;1135;-56
2022/11/09 07:20:48;;;;;;;;;;;;;;;16.01;53.12;101664.31;5052119;28;1783;-57
2022/11/09 07:23:13;;;;;;;;;;;;;;;17.51;49.28;101658.19;5056590;28;1372;-62
2022/11/09 07:25:39;;;;;;;;;;;;;;;16.60;51.63;101654.81;5058708;28;1155;-57
2022/11/09 07:28:06;;;;;;;;;;;;;;;16.25;52.65;101655.94;5059010;28;1979;-61
2022/11/09 07:30:31;;;;;;;;;;;;;;;16.05;52.98;101660.00;5056827;28;1201;-55
2022/11/09 07:32:58;;;;;;;;;;;;;;;15.92;53.41;101649.34;5055506;28;1128;-62
2022/11/09 07:35:24;;;;;;;;;;;;;;;15.79;53.68;101657.88;5057127;28;1097;-56
2022/11/09 07:37:50;;;;;;;;;;;;;;;17.22;50.32;101647.41;5048571;28;1207;-59
2022/11/09 07:40:15;;;;;;;;;;;;;;;16.89;50.93;101644.53;5058292;28;1183;-58
2022/11/09 07:42:41;;;;;;;;;;;;;;;16.33;52.42;101652.78;5058827;28;1119;-60
2022/11/09 07:45:06;;;;;;;;;;;;;;;16.10;52.95;101650.19;5058604;28;1127;-58
2022/11/09 07:47:32;;;;;;;;;;;;;;;15.95;53.29;101654.34;5058072;28;1898;-59
2022/11/09 07:49:57;;;;;;;;;;;;;;;15.82;53.44;101649.16;5058303;28;1941;-57
2022/11/09 07:52:23;;;;;;;;;;;;;;;15.72;53.94;101653.38;5058104;28;1089;-58
2022/11/09 07:54:48;;;;;;;;;;;;;;;17.31;50.10;101645.06;5058417;28;1135;-57
2022/11/09 07:57:13;;;;;;;;;;;;;;;16.56;51.73;101648.16;5058143;28;1191;-58
2022/11/09 07:59:39;;;;;;;;;;;;;;;16.18;53.04;101649.78;5056010;28;1263;-59
2022/11/09 08:02:04;;;;;;;;;;;;;;;15.99;53.40;101658.25;5047532;28;1604;-57
2022/11/09 08:04:30;;;;;;;;;;;;;;;16.50;52.54;101660.16;5057905;28;1183;-56
2022/11/09 08:06:55;;;;;;;;;;;;;;;17.35;50.16;101665.44;5058130;28;1902;-57
2022/11/09 08:09:21;;;;;;;;;;;;;;;16.48;52.18;101665.06;5057722;28;1147;-57
2022/11/09 08:11:46;;;;;;;;;;;;;;;16.16;53.10;101668.41;5058088;28;1206;-58
2022/11/09 08:14:11;;;;;;;;;;;;;;;16.02;53.32;101668.75;5058151;28;1104;-57
2022/11/09 08:16:37;;;;;;;;;;;;;;;15.90;53.55;101665.22;5057989;28;1147;-58
2022/11/09 08:19:02;;;;;;;;;;;;;;;15.99;53.53;101665.66;5054071;28;2237;-56
2022/11/09 08:21:28;;;;;;;;;;;;;;;17.52;49.78;101668.13;5057507;28;1139;-56
2022/11/09 08:23:53;;;;;;;;;;;;;;;16.62;51.98;101671.91;5057834;28;965;-56
2022/11/09 08:26:19;;;;;;;;;;;;;;;16.23;52.90;101658.13;5057603;28;1902;-60
2022/11/09 08:28:44;;;;;;;;;;;;;;;16.03;53.36;101662.19;5057877;28;1190;-58
2022/11/09 08:31:09;;;;;;;;;;;;;;;15.86;53.64;101656.66;5057661;28;1124;-60
2022/11/09 08:33:38;;;;;;;;;;;;;;;16.71;51.97;101644.81;5057372;28;1407;-58
2022/11/09 08:36:08;;;;;;;;;;;;;;;17.00;50.96;101645.53;5057934;28;1179;-56
2022/11/09 08:38:33;;;;;;;;;;;;;;;16.33;52.70;101658.25;5057587;28;1088;-59
2022/11/09 08:40:59;;;;;;;;;;;;;;;16.15;53.16;101655.78;5057282;28;1159;-56
2022/11/09 08:43:24;;;;;;;;;;;;;;;15.94;53.61;101660.91;5057809;28;1194;-56
2022/11/09 08:45:50;;;;;;;;;;;;;;;15.90;53.85;101662.47;5057433;28;1183;-59
2022/11/09 08:48:15;;;;;;;;;;;;;;;17.43;50.13;101663.09;5057423;28;1910;-56
2022/11/09 08:50:40;;;;;;;;;;;;;;;16.58;52.34;101666.06;5056962;28;2342;-57
2022/11/09 08:53:06;;;;;;;;;;;;;;;16.22;53.08;101665.50;5057084;28;1120;-57
2022/11/09 08:55:32;;;;;;;;;;;;;;;16.04;53.84;101669.31;5056924;28;1214;-61
2022/11/09 08:57:58;;;;;;;;;;;;;;;15.93;53.76;101669.38;5057431;28;978;-60
2022/11/09 09:00:24;;;;;;;;;;;;;;;17.54;50.11;101666.75;5056839;28;1206;-60
2022/11/09 09:02:49;;;;;;;;;;;;;;;16.69;52.10;101674.44;5057246;28;1176;-60
2022/11/09 09:05:15;;;;;;;;;;;;;;;16.29;53.25;101670.00;5057289;28;1242;-59
2022/11/09 09:07:40;;;;;;;;;;;;;;;16.07;53.63;101660.59;5056860;28;1985;-59
2022/11/09 09:10:06;;;;;;;;;;;;;;;17.44;50.28;101670.22;5057186;28;915;-60
2022/11/09 09:12:31;;;;;;;;;;;;;;;16.69;51.96;101664.31;5057032;28;1194;-55
2022/11/09 09:14:56;;;;;;;;;;;;;;;16.31;53.23;101667.81;5056796;28;1206;-55
2022/11/09 09:17:22;;;;;;;;;;;;;;;16.11;53.42;101662.84;5056633;28;1255;-58
2022/11/09 09:19:47;;;;;;;;;;;;;;;15.97;54.02;101665.91;5056859;28;1871;-62
2022/11/09 09:22:13;;;;;;;;;;;;;;;16.73;52.34;101659.97;5056575;28;949;-56
2022/11/09 09:24:38;;;;;;;;;;;;;;;17.14;50.94;101664.34;5056375;28;1217;-60
2022/11/09 09:27:04;;;;;;;;;;;;;;;16.45;52.74;101668.31;5056602;28;1906;-54
2022/11/09 09:29:29;;;;;;;;;;;;;;;16.18;53.36;101655.28;5056398;28;1171;-61
2022/11/09 09:31:54;;;;;;;;;;;;;;;16.02;53.80;101657.75;5056473;28;1215;-57
2022/11/09 09:34:20;;;;;;;;;;;;;;;15.88;54.18;101654.50;5056423;28;892;-57
2022/11/09 09:36:45;;;;;;;;;;;;;;;17.24;51.04;101650.75;5055973;28;1195;-55
2022/11/09 09:39:11;;;;;;;;;;;;;;;16.76;51.88;101655.88;5056476;28;1155;-55
2022/11/09 09:41:38;;;;;;;;;;;;;;;16.30;53.11;101645.06;5056777;28;1178;-57
2022/11/09 09:44:16;;;;;;;;;;;;;;;16.13;53.93;101646.94;5038687;28;1180;-54
2022/11/09 09:46:46;;;;;;;;;;;;;;;16.50;53.25;101651.94;5055745;28;1902;-58
2022/11/09 09:49:13;;;;;;;;;;;;;;;17.01;51.27;101641.69;5038679;28;2423;-56
2022/11/09 09:51:38;;;;;;;;;;;;;;;16.35;53.14;101633.31;5056209;28;1206;-57
2022/11/09 09:54:24;;;;;;;;;;;;;;;16.16;53.69;101640.97;5052064;28;1458;-56
2022/11/09 09:56:50;;;;;;;;;;;;;;;16.62;53.25;101638.94;5055459;28;1213;-56
2022/11/09 09:59:36;;;;;;;;;;;;;;;17.30;51.00;101629.66;5054709;28;1100;-58
2022/11/09 10:02:02;;;;;;;;;;;;;;;16.46;53.51;101634.31;5038169;28;1160;-56
2022/11/09 10:04:35;;;;;;;;;;;;;;;16.24;53.87;101627.66;5056642;28;1128;-57
2022/11/09 10:07:39;;;;;;;;;;;;;;;16.07;54.29;101621.34;5056035;28;1973;-58
2022/11/09 10:10:23;;;;;;;;;;;;;;;15.89;54.51;101627.91;4981913;28;1418;-54
2022/11/09 10:13:07;;;;;;;;;;;;;;;15.88;54.67;101629.00;4969510;28;1181;-57
2022/11/09 10:15:56;;;;;;;;;;;;;;;17.53;50.48;101612.00;5037738;28;1160;-58
2022/11/09 10:18:31;;;;;;;;;;;;;;;16.70;53.08;101624.75;5047571;28;1226;-57
2022/11/09 10:20:57;;;;;;;;;;;;;;;16.28;54.12;101619.75;5038509;28;2372;-55
2022/11/09 10:23:25;;;;;;;;;;;;;;;16.06;54.37;101620.53;5055950;28;958;-58
2022/11/09 10:25:53;;;;;;;;;;;;;;;15.98;54.61;101620.94;5055973;28;1222;-56
2022/11/09 10:28:18;;;;;;;;;;;;;;;15.87;54.69;101621.84;5055565;28;1977;-54
2022/11/09 10:30:44;;;;;;;;;;;;;;;17.38;51.34;101602.53;5037798;28;1140;-56
2022/11/09 10:33:09;;;;;;;;;;;;;;;16.76;52.56;101604.53;5037684;28;1132;-55
2022/11/09 10:35:41;;;;;;;;;;;;;;;16.29;54.09;101609.63;5056062;28;1124;-55
2022/11/09 10:38:07;;;;;;;;;;;;;;;16.10;54.32;101617.28;5055821;28;1155;-56
2022/11/09 10:40:37;;;;;;;;;;;;;;;15.88;54.77;101607.88;5036726;28;1101;-54
2022/11/09 10:43:21;;;;;;;;;;;;;;;15.81;54.83;101615.44;5040288;28;1164;-58
2022/11/09 10:46:06;;;;;;;;;;;;;;;17.56;51.41;101611.53;5055367;28;1274;-58
2022/11/09 10:48:50;;;;;;;;;;;;;;;16.83;53.16;101608.97;5039315;28;1204;-56
2022/11/09 10:51:38;;;;;;;;;;;;;;;16.29;54.46;101604.94;5045580;28;1025;-56
2022/11/09 10:54:23;;;;;;;;;;;;;;;16.08;54.91;101607.38;5055440;28;1246;-55
2022/11/09 10:57:15;;;;;;;;;;;;;;;16.41;54.63;101607.59;5055584;28;1164;-51
2022/11/09 10:59:59;;;;;;;;;;;;;;;17.30;51.91;101599.41;5055279;28;1119;-53
2022/11/09 11:02:44;;;;;;;;;;;;;;;16.43;54.36;101598.03;5055351;28;1139;-57
2022/11/09 11:05:28;;;;;;;;;;;;;;;16.20;54.68;101599.06;5055448;28;1107;-57
2022/11/09 11:08:20;;;;;;;;;;;;;;;16.01;54.83;101595.75;5042415;28;1964;-56
2022/11/09 11:11:19;;;;;;;;;;;;;;;15.82;55.26;101589.69;5055167;28;1143;-55
2022/11/09 11:14:07;;;;;;;;;;;;;;;17.44;51.80;101587.72;5059267;28;1040;-57
2022/11/09 11:16:51;;;;;;;;;;;;;;;16.50;54.11;101595.09;5059265;28;1021;-56
2022/11/09 11:19:37;;;;;;;;;;;;;;;16.17;54.75;101595.97;5058750;28;2353;-55
2022/11/09 11:22:22;;;;;;;;;;;;;;;15.97;54.92;101599.25;5058687;28;1135;-55
2022/11/09 11:25:19;;;;;;;;;;;;;;;15.81;55.29;101589.91;5044963;28;1009;-56
2022/11/09 11:28:17;;;;;;;;;;;;;;;17.43;51.91;101588.84;5058660;28;1906;-56
2022/11/09 11:31:01;;;;;;;;;;;;;;;16.60;53.97;101583.44;5043324;28;1164;-53
2022/11/09 11:33:45;;;;;;;;;;;;;;;16.19;54.67;101575.44;5046057;28;1026;-55
2022/11/09 11:36:32;;;;;;;;;;;;;;;16.03;54.97;101584.50;5058584;28;1077;-56
2022/11/09 11:39:22;;;;;;;;;;;;;;;15.88;55.22;101574.97;5058541;28;1183;-50
2022/11/09 11:42:15;;;;;;;;;;;;;;;16.73;53.59;101583.06;5058479;28;1101;-53
2022/11/09 11:44:59;;;;;;;;;;;;;;;16.62;53.86;101580.44;5058124;28;1072;-52
2022/11/09 11:47:56;;;;;;;;;;;;;;;16.18;55.04;101583.94;5058116;28;1967;-53
2022/11/09 11:50:55;;;;;;;;;;;;;;;15.94;55.38;101586.84;5043543;28;2368;-53
2022/11/09 11:53:53;;;;;;;;;;;;;;;15.83;55.21;101585.84;5043114;28;1069;-55
2022/11/09 11:56:42;;;;;;;;;;;;;;;17.52;51.71;101580.13;5033179;28;1140;-52
2022/11/09 11:59:25;;;;;;;;;;;;;;;16.53;54.17;101593.78;5042773;28;1178;-53
2022/11/09 12:02:12;;;;;;;;;;;;;;;16.17;54.83;101585.84;5058015;28;1294;-57
2022/11/09 12:05:15;;;;;;;;;;;;;;;16.00;55.17;101593.25;5046427;28;978;-54
2022/11/09 12:08:09;;;;;;;;;;;;;;;16.77;54.02;101592.47;5057920;28;1913;-55
2022/11/09 12:11:00;;;;;;;;;;;;;;;16.97;53.03;101584.75;5057592;28;1100;-56
2022/11/09 12:13:47;;;;;;;;;;;;;;;16.34;54.62;101595.97;5051530;28;1262;-54
2022/11/09 12:16:34;;;;;;;;;;;;;;;16.13;54.92;101589.34;5049707;28;1291;-54
2022/11/09 12:19:33;;;;;;;;;;;;;;;16.05;55.13;101580.44;5056237;28;2436;-53
2022/11/09 12:22:22;;;;;;;;;;;;;;;17.02;52.75;101579.31;5034050;28;1330;-56
2022/11/09 12:25:12;;;;;;;;;;;;;;;16.29;54.66;101585.75;5051398;28;1323;-56
2022/11/09 12:28:14;;;;;;;;;;;;;;;16.08;54.98;101587.34;5049066;28;1970;-53
2022/11/09 12:31:04;;;;;;;;;;;;;;;15.90;55.48;101580.19;5048645;28;1172;-57
2022/11/09 12:33:53;;;;;;;;;;;;;;;16.23;55.16;101581.28;5055701;28;1029;-54
2022/11/09 12:36:58;;;;;;;;;;;;;;;17.29;52.17;101584.81;5052226;28;1120;-58
2022/11/09 12:39:46;;;;;;;;;;;;;;;16.32;54.64;101585.22;5045490;28;1151;-57
2022/11/09 12:42:42;;;;;;;;;;;;;;;16.11;55.23;101584.09;5042488;28;1158;-56
2022/11/09 12:45:32;;;;;;;;;;;;;;;15.95;55.51;101588.53;5023640;28;1195;-55
2022/11/09 12:48:21;;;;;;;;;;;;;;;16.50;54.61;101588.78;5036512;28;1906;-58
2022/11/09 12:51:06;;;;;;;;;;;;;;;17.10;52.78;101587.09;5042287;28;2237;-57
2022/11/09 12:53:50;;;;;;;;;;;;;;;16.35;54.85;101581.16;5042166;28;1156;-54
2022/11/09 12:56:34;;;;;;;;;;;;;;;16.07;55.47;101581.03;5045729;28;1002;-53
2022/11/09 12:59:19;;;;;;;;;;;;;;;15.94;55.38;101581.38;5041524;28;1121;-53
2022/11/09 13:02:03;;;;;;;;;;;;;;;17.51;52.01;101586.72;5056869;28;1139;-54